createdAt,value
2022-10-18T00:00:10.272Z,734
2022-10-18T00:01:10.251Z,737
2022-10-18T00:02:10.343Z,752
2022-10-18T00:03:10.269Z,754
2022-10-18T00:04:10.249Z,739
2022-10-18T00:05:10.257Z,736
2022-10-18T00:06:10.242Z,732
2022-10-18T00:07:10.235Z,724
2022-10-18T00:08:11.287Z,751
2022-10-18T00:09:10.238Z,758
2022-10-18T00:10:10.251Z,751
2022-10-18T00:11:10.251Z,760
2022-10-18T00:12:10.257Z,787
2022-10-18T00:13:10.229Z,753
2022-10-18T00:14:10.248Z,754
2022-10-18T00:15:10.228Z,719
2022-10-18T00:16:10.254Z,739
2022-10-18T00:17:10.260Z,742
2022-10-18T00:18:10.243Z,742
2022-10-18T00:19:10.224Z,767
2022-10-18T00:20:10.220Z,718
2022-10-18T00:21:10.223Z,757
2022-10-18T00:22:10.288Z,800
2022-10-18T00:23:10.234Z,730
2022-10-18T00:24:10.237Z,736
2022-10-18T00:25:10.222Z,731
2022-10-18T00:26:10.218Z,761
2022-10-18T00:27:10.232Z,766
2022-10-18T00:28:10.210Z,752
2022-10-18T00:29:10.226Z,743
2022-10-18T00:30:10.209Z,712
2022-10-18T00:31:10.213Z,746
2022-10-18T00:32:10.252Z,737
2022-10-18T00:33:10.215Z,746
2022-10-18T00:34:10.212Z,745
2022-10-18T00:35:10.215Z,748
2022-10-18T00:36:10.203Z,721
2022-10-18T00:37:10.201Z,735
2022-10-18T00:38:10.195Z,733
2022-10-18T00:39:10.219Z,753
2022-10-18T00:40:10.204Z,739
2022-10-18T00:41:10.203Z,735
2022-10-18T00:42:10.192Z,743
2022-10-18T00:43:10.200Z,725
2022-10-18T00:44:10.210Z,735
2022-10-18T00:45:10.197Z,721
2022-10-18T00:46:10.189Z,746
2022-10-18T00:47:10.193Z,767
2022-10-18T00:48:10.230Z,731
2022-10-18T00:49:10.191Z,737
2022-10-18T00:50:10.206Z,719
2022-10-18T00:51:10.185Z,745
2022-10-18T00:52:10.183Z,731
2022-10-18T00:53:10.186Z,716
2022-10-18T00:54:10.186Z,741
2022-10-18T00:55:10.199Z,708
2022-10-18T00:56:10.183Z,740
2022-10-18T00:57:10.178Z,705
2022-10-18T00:58:10.177Z,713
2022-10-18T00:59:10.175Z,727
2022-10-18T01:00:10.244Z,728
2022-10-18T01:01:10.278Z,735
2022-10-18T01:02:10.300Z,725
2022-10-18T01:03:10.179Z,704
2022-10-18T01:04:10.202Z,725
2022-10-18T01:05:10.173Z,726
2022-10-18T01:06:10.173Z,762
2022-10-18T01:07:10.182Z,744
2022-10-18T01:08:10.164Z,729
2022-10-18T01:09:10.168Z,718
2022-10-18T01:10:10.163Z,739
2022-10-18T01:11:10.176Z,723
2022-10-18T01:12:10.185Z,726
2022-10-18T01:13:10.157Z,731
2022-10-18T01:14:10.161Z,703
2022-10-18T01:15:10.166Z,712
2022-10-18T01:16:10.159Z,743
2022-10-18T01:17:10.202Z,703
2022-10-18T01:18:10.154Z,717
2022-10-18T01:19:10.161Z,718
2022-10-18T01:20:10.175Z,707
2022-10-18T01:21:10.162Z,741
2022-10-18T01:22:10.163Z,740
2022-10-18T01:23:10.150Z,720
2022-10-18T01:24:10.146Z,742
2022-10-18T01:25:10.147Z,723
2022-10-18T01:26:10.143Z,732
2022-10-18T01:27:10.160Z,722
2022-10-18T01:28:10.147Z,782
2022-10-18T01:29:10.148Z,702
2022-10-18T01:30:10.148Z,686
2022-10-18T01:31:10.138Z,725
2022-10-18T01:32:10.151Z,737
2022-10-18T01:33:10.135Z,750
2022-10-18T01:34:10.147Z,713
2022-10-18T01:35:10.136Z,742
2022-10-18T01:36:10.177Z,706
2022-10-18T01:37:10.134Z,743
2022-10-18T01:38:10.130Z,719
2022-10-18T01:39:10.147Z,707
2022-10-18T01:40:10.134Z,695
2022-10-18T01:41:13.289Z,734
2022-10-18T01:42:10.129Z,708
2022-10-18T01:43:10.142Z,723
2022-10-18T01:44:10.123Z,699
2022-10-18T01:45:10.125Z,707
2022-10-18T01:46:10.199Z,712
2022-10-18T01:47:10.134Z,729
2022-10-18T01:48:10.129Z,698
2022-10-18T01:49:10.121Z,719
2022-10-18T01:50:10.125Z,736
2022-10-18T01:51:10.134Z,731
2022-10-18T01:52:10.148Z,719
2022-10-18T01:53:10.133Z,709
2022-10-18T01:54:10.116Z,728
2022-10-18T01:55:10.110Z,729
2022-10-18T01:56:10.128Z,715
2022-10-18T01:57:10.107Z,720
2022-10-18T01:58:10.123Z,700
2022-10-18T01:59:10.114Z,696
2022-10-18T02:00:10.109Z,697
2022-10-18T02:02:10.102Z,695
2022-10-18T02:03:10.116Z,724
2022-10-18T02:04:10.113Z,688
2022-10-18T02:05:10.104Z,735
2022-10-18T02:06:10.105Z,727
2022-10-18T02:07:10.101Z,719
2022-10-18T02:08:22.767Z,722
2022-10-18T02:09:10.094Z,712
2022-10-18T02:10:10.150Z,691
2022-10-18T02:11:10.088Z,719
2022-10-18T02:12:10.108Z,710
2022-10-18T02:13:10.107Z,690
2022-10-18T02:14:10.088Z,715
2022-10-18T02:15:10.093Z,693
2022-10-18T02:16:10.095Z,720
2022-10-18T02:17:10.132Z,723
2022-10-18T02:18:10.082Z,725
2022-10-18T02:19:10.086Z,692
2022-10-18T02:20:10.093Z,689
2022-10-18T02:21:10.082Z,721
2022-10-18T02:22:10.097Z,746
2022-10-18T02:23:10.098Z,730
2022-10-18T02:24:10.118Z,728
2022-10-18T02:25:10.078Z,702
2022-10-18T02:26:10.070Z,708
2022-10-18T02:27:10.069Z,727
2022-10-18T02:28:11.524Z,699
2022-10-18T02:29:10.091Z,696
2022-10-18T02:30:10.076Z,730
2022-10-18T02:31:10.069Z,714
2022-10-18T02:32:10.068Z,698
2022-10-18T02:33:10.066Z,719
2022-10-18T02:34:10.082Z,721
2022-10-18T02:35:10.077Z,736
2022-10-18T02:36:10.070Z,739
2022-10-18T02:37:10.079Z,697
2022-10-18T02:38:10.066Z,739
2022-10-18T02:39:10.075Z,686
2022-10-18T02:40:10.083Z,718
2022-10-18T02:41:10.062Z,718
2022-10-18T02:42:10.071Z,728
2022-10-18T02:43:10.061Z,718
2022-10-18T02:44:10.070Z,715
2022-10-18T02:45:10.057Z,735
2022-10-18T02:46:10.059Z,708
2022-10-18T02:47:10.054Z,729
2022-10-18T02:48:10.070Z,720
2022-10-18T02:49:10.051Z,709
2022-10-18T02:50:10.046Z,726
2022-10-18T02:51:10.083Z,732
2022-10-18T02:52:10.045Z,708
2022-10-18T02:53:10.048Z,699
2022-10-18T02:54:10.047Z,711
2022-10-18T02:55:10.056Z,726
2022-10-18T02:56:10.087Z,704
2022-10-18T02:57:10.050Z,703
2022-10-18T02:58:10.042Z,724
2022-10-18T02:59:10.034Z,730
2022-10-18T03:00:10.035Z,724
2022-10-18T03:01:10.131Z,698
2022-10-18T03:02:10.040Z,708
2022-10-18T03:03:10.034Z,699
2022-10-18T03:04:10.029Z,716
2022-10-18T03:05:10.033Z,699
2022-10-18T03:06:10.042Z,690
2022-10-18T03:07:10.037Z,733
2022-10-18T03:08:10.045Z,698
2022-10-18T03:09:10.029Z,718
2022-10-18T03:10:10.030Z,714
2022-10-18T03:11:10.046Z,705
2022-10-18T03:12:10.068Z,700
2022-10-18T03:13:10.022Z,736
2022-10-18T03:14:10.029Z,713
2022-10-18T03:15:11.031Z,696
2022-10-18T03:16:10.017Z,704
2022-10-18T03:17:10.067Z,717
2022-10-18T03:18:10.017Z,734
2022-10-18T03:19:10.012Z,738
2022-10-18T03:20:10.018Z,725
2022-10-18T03:21:10.053Z,696
2022-10-18T03:22:10.007Z,728
2022-10-18T03:23:10.014Z,708
2022-10-18T03:24:10.005Z,697
2022-10-18T03:25:10.007Z,711
2022-10-18T03:26:10.006Z,717
2022-10-18T03:27:10.016Z,698
2022-10-18T03:28:10.028Z,725
2022-10-18T03:29:10.060Z,713
2022-10-18T03:30:10.017Z,704
2022-10-18T03:31:10.003Z,708
2022-10-18T03:32:09.995Z,708
2022-10-18T03:33:10.001Z,701
2022-10-18T03:34:10.019Z,704
2022-10-18T03:35:09.994Z,708
2022-10-18T03:36:10.001Z,701
2022-10-18T03:37:10.010Z,709
2022-10-18T03:38:09.991Z,700
2022-10-18T03:39:10.006Z,694
2022-10-18T03:40:09.999Z,704
2022-10-18T03:41:09.995Z,709
2022-10-18T03:42:09.999Z,719
2022-10-18T03:43:09.998Z,704
2022-10-18T03:44:10.027Z,684
2022-10-18T03:45:09.989Z,703
2022-10-18T03:46:09.989Z,708
2022-10-18T03:47:09.982Z,727
2022-10-18T03:48:09.987Z,712
2022-10-18T03:49:09.997Z,716
2022-10-18T03:50:09.999Z,734
2022-10-18T03:51:09.984Z,719
2022-10-18T03:52:09.974Z,709
2022-10-18T03:53:09.970Z,717
2022-10-18T03:54:09.996Z,711
2022-10-18T03:55:09.978Z,729
2022-10-18T03:56:09.983Z,720
2022-10-18T03:57:09.972Z,719
2022-10-18T03:58:09.972Z,716
2022-10-18T03:59:09.987Z,707
2022-10-18T04:00:10.015Z,687
2022-10-18T04:01:10.025Z,699
2022-10-18T04:02:09.965Z,714
2022-10-18T04:03:09.979Z,710
2022-10-18T04:04:09.964Z,709
2022-10-18T04:05:09.960Z,726
2022-10-18T04:06:10.054Z,697
2022-10-18T04:07:09.963Z,705
2022-10-18T04:08:09.972Z,673
2022-10-18T04:09:10.359Z,672
2022-10-18T04:10:09.955Z,690
2022-10-18T04:11:09.983Z,677
2022-10-18T04:12:09.954Z,686
2022-10-18T04:13:09.972Z,719
2022-10-18T04:14:09.953Z,709
2022-10-18T04:15:09.954Z,722
2022-10-18T04:16:09.989Z,702
2022-10-18T04:17:09.952Z,710
2022-10-18T04:18:09.982Z,707
2022-10-18T04:19:09.955Z,720
2022-10-18T04:20:09.944Z,697
2022-10-18T04:21:09.938Z,703
2022-10-18T04:22:09.940Z,774
2022-10-18T04:23:09.945Z,834
2022-10-18T04:24:09.954Z,795
2022-10-18T04:25:09.942Z,813
2022-10-18T04:26:09.944Z,813
2022-10-18T04:27:09.945Z,793
2022-10-18T04:28:09.931Z,838
2022-10-18T04:29:10.076Z,836
2022-10-18T04:30:09.934Z,820
2022-10-18T04:31:09.931Z,828
2022-10-18T04:32:09.937Z,797
2022-10-18T04:33:09.938Z,795
2022-10-18T04:34:09.950Z,821
2022-10-18T04:35:09.953Z,839
2022-10-18T04:36:09.930Z,854
2022-10-18T04:37:09.927Z,827
2022-10-18T04:38:09.926Z,804
2022-10-18T04:39:09.938Z,835
2022-10-18T04:40:09.928Z,799
2022-10-18T04:41:09.920Z,791
2022-10-18T04:42:09.928Z,791
2022-10-18T04:43:09.916Z,795
2022-10-18T04:44:09.938Z,788
2022-10-18T04:45:09.932Z,810
2022-10-18T04:46:09.913Z,799
2022-10-18T04:47:09.915Z,792
2022-10-18T04:48:09.915Z,790
2022-10-18T04:49:09.915Z,787
2022-10-18T04:50:09.922Z,785
2022-10-18T04:51:09.947Z,795
2022-10-18T04:52:09.909Z,783
2022-10-18T04:53:09.917Z,783
2022-10-18T04:54:09.919Z,771
2022-10-18T04:55:09.903Z,774
2022-10-18T04:56:09.904Z,767
2022-10-18T04:57:09.904Z,758
2022-10-18T04:58:09.904Z,783
2022-10-18T04:59:09.916Z,780
2022-10-18T05:00:09.899Z,769
2022-10-18T05:01:09.895Z,773
2022-10-18T05:02:09.900Z,775
2022-10-18T05:03:09.892Z,784
2022-10-18T05:04:09.907Z,786
2022-10-18T05:05:11.775Z,759
2022-10-18T05:06:09.897Z,759
2022-10-18T05:07:09.913Z,776
2022-10-18T05:08:09.896Z,778
2022-10-18T05:09:09.901Z,761
2022-10-18T05:10:09.891Z,774
2022-10-18T05:12:09.885Z,783
2022-10-18T05:13:09.895Z,799
2022-10-18T05:14:09.882Z,745
2022-10-18T05:15:09.889Z,746
2022-10-18T05:16:09.885Z,762
2022-10-18T05:17:09.879Z,783
2022-10-18T05:18:09.929Z,777
2022-10-18T05:19:09.896Z,751
2022-10-18T05:20:10.075Z,774
2022-10-18T05:21:09.870Z,769
2022-10-18T05:22:09.887Z,750
2022-10-18T05:23:09.894Z,760
2022-10-18T05:24:09.870Z,751
2022-10-18T05:25:09.878Z,754
2022-10-18T05:26:09.871Z,752
2022-10-18T05:27:09.871Z,756
2022-10-18T05:28:34.079Z,760
2022-10-18T05:29:10.017Z,767
2022-10-18T05:30:09.879Z,766
2022-10-18T05:31:09.885Z,792
2022-10-18T05:32:09.857Z,781
2022-10-18T05:33:09.881Z,752
2022-10-18T05:34:09.867Z,749
2022-10-18T05:35:09.872Z,740
2022-10-18T05:36:09.883Z,754
2022-10-18T05:37:09.859Z,771
2022-10-18T05:38:09.859Z,817
2022-10-18T05:39:09.882Z,765
2022-10-18T05:40:09.869Z,783
2022-10-18T05:41:09.846Z,765
2022-10-18T05:42:09.845Z,792
2022-10-18T05:43:09.847Z,777
2022-10-18T05:44:09.859Z,785
2022-10-18T05:45:09.853Z,788
2022-10-18T05:46:14.582Z,825
2022-10-18T05:47:09.856Z,777
2022-10-18T05:48:09.845Z,763
2022-10-18T05:49:09.868Z,777
2022-10-18T05:50:09.852Z,783
2022-10-18T05:51:09.860Z,791
2022-10-18T05:52:09.839Z,794
2022-10-18T05:53:12.415Z,822
2022-10-18T05:54:09.856Z,791
2022-10-18T05:55:09.866Z,776
2022-10-18T05:56:09.833Z,785
2022-10-18T05:57:09.840Z,780
2022-10-18T05:58:09.850Z,777
2022-10-18T05:59:09.857Z,811
2022-10-18T06:00:09.851Z,777
2022-10-18T06:01:09.831Z,807
2022-10-18T06:02:09.875Z,846
2022-10-18T06:03:09.823Z,844
2022-10-18T06:04:09.838Z,820
2022-10-18T06:05:09.878Z,796
2022-10-18T06:06:09.832Z,808
2022-10-18T06:07:09.820Z,948
2022-10-18T06:08:10.387Z,872
2022-10-18T06:09:09.836Z,942
2022-10-18T06:10:09.818Z,834
2022-10-18T06:11:09.838Z,807
2022-10-18T06:12:09.818Z,800
2022-10-18T06:13:09.817Z,802
2022-10-18T06:14:09.838Z,794
2022-10-18T06:15:09.832Z,808
2022-10-18T06:16:09.817Z,807
2022-10-18T06:17:09.814Z,789
2022-10-18T06:18:09.842Z,814
2022-10-18T06:19:09.828Z,775
2022-10-18T06:20:09.807Z,789
2022-10-18T06:21:09.806Z,791
2022-10-18T06:22:09.822Z,801
2022-10-18T06:23:09.817Z,854
2022-10-18T06:24:09.843Z,838
2022-10-18T06:25:09.826Z,814
2022-10-18T06:26:09.805Z,844
2022-10-18T06:27:09.928Z,830
2022-10-18T06:28:11.518Z,807
2022-10-18T06:29:09.911Z,812
2022-10-18T06:30:09.799Z,833
2022-10-18T06:31:09.912Z,847
2022-10-18T06:32:09.796Z,818
2022-10-18T06:33:09.793Z,804
2022-10-18T06:34:09.811Z,802
2022-10-18T06:35:09.795Z,819
2022-10-18T06:36:09.795Z,824
2022-10-18T06:37:09.793Z,944
2022-10-18T06:38:09.813Z,829
2022-10-18T06:39:09.804Z,860
2022-10-18T06:40:09.807Z,842
2022-10-18T06:41:09.787Z,845
2022-10-18T06:42:09.796Z,860
2022-10-18T06:43:20.667Z,862
2022-10-18T06:44:09.796Z,845
2022-10-18T06:45:09.781Z,838
2022-10-18T06:46:09.816Z,853
2022-10-18T06:47:09.777Z,871
2022-10-18T06:48:09.908Z,864
2022-10-18T06:49:10.651Z,873
2022-10-18T06:50:09.787Z,920
2022-10-18T06:51:09.763Z,864
2022-10-18T06:52:09.774Z,844
2022-10-18T06:53:09.783Z,855
2022-10-18T06:54:18.358Z,860
2022-10-18T06:55:09.760Z,1019
2022-10-18T06:56:09.768Z,940
2022-10-18T06:57:09.764Z,921
2022-10-18T06:58:09.767Z,908
2022-10-18T06:59:09.806Z,890
2022-10-18T07:00:09.784Z,958
2022-10-18T07:01:09.915Z,911
2022-10-18T07:02:09.759Z,916
2022-10-18T07:03:09.752Z,1052
2022-10-18T07:04:09.775Z,919
2022-10-18T07:05:09.765Z,912
2022-10-18T07:06:09.760Z,1086
2022-10-18T07:07:09.765Z,959
2022-10-18T07:08:09.754Z,935
2022-10-18T07:09:09.767Z,931
2022-10-18T07:10:12.935Z,1006
2022-10-18T07:11:09.745Z,956
2022-10-18T07:12:09.755Z,958
2022-10-18T07:13:33.611Z,963
2022-10-18T07:14:12.620Z,968
2022-10-18T07:15:09.845Z,936
2022-10-18T07:16:11.600Z,931
2022-10-18T07:17:09.754Z,960
2022-10-18T07:18:09.769Z,989
2022-10-18T07:19:09.752Z,972
2022-10-18T07:20:09.743Z,999
2022-10-18T07:21:09.739Z,987
2022-10-18T07:22:09.770Z,1086
2022-10-18T07:23:09.739Z,1035
2022-10-18T07:24:09.755Z,1052
2022-10-18T07:25:09.769Z,1006
2022-10-18T07:26:09.746Z,994
2022-10-18T07:27:09.747Z,1027
2022-10-18T07:28:09.767Z,1043
2022-10-18T07:29:09.865Z,963
2022-10-18T07:30:09.743Z,1025
2022-10-18T07:31:09.781Z,1021
2022-10-18T07:32:09.740Z,1035
2022-10-18T07:33:09.727Z,1033
2022-10-18T07:34:09.741Z,1016
2022-10-18T07:35:09.758Z,1074
2022-10-18T07:36:09.727Z,1068
2022-10-18T07:37:09.721Z,1099
2022-10-18T07:38:09.723Z,1101
2022-10-18T07:39:09.728Z,1115
2022-10-18T07:40:09.748Z,1080
2022-10-18T07:41:09.735Z,1074
2022-10-18T07:42:09.710Z,1056
2022-10-18T07:43:12.155Z,1041
2022-10-18T07:44:09.708Z,1092
2022-10-18T07:45:09.715Z,1032
2022-10-18T07:46:09.710Z,1023
2022-10-18T07:47:09.744Z,1067
2022-10-18T07:48:09.715Z,1053
2022-10-18T07:49:09.707Z,1058
2022-10-18T07:50:09.706Z,1060
2022-10-18T07:51:09.712Z,1051
2022-10-18T07:52:09.698Z,1134
2022-10-18T07:53:09.715Z,1088
2022-10-18T07:54:09.712Z,1047
2022-10-18T07:55:09.703Z,1038
2022-10-18T07:56:09.869Z,1012
2022-10-18T07:57:09.716Z,1029
2022-10-18T07:58:09.754Z,1083
2022-10-18T07:59:09.717Z,1084
2022-10-18T08:00:09.697Z,1089
2022-10-18T08:01:09.847Z,1128
2022-10-18T08:02:09.697Z,1115
2022-10-18T08:03:09.721Z,1088
2022-10-18T08:04:13.966Z,1035
2022-10-18T08:05:09.685Z,1041
2022-10-18T08:06:09.709Z,1052
2022-10-18T08:07:09.691Z,1068
2022-10-18T08:08:09.682Z,1203
2022-10-18T08:09:09.719Z,1293
2022-10-18T08:10:09.681Z,1324
2022-10-18T08:11:09.675Z,1292
2022-10-18T08:12:09.683Z,1249
2022-10-18T08:13:09.667Z,1124
2022-10-18T08:14:09.693Z,1065
2022-10-18T08:15:09.684Z,1055
2022-10-18T08:16:09.669Z,1080
2022-10-18T08:17:09.672Z,1085
2022-10-18T08:18:09.811Z,1143
2022-10-18T08:19:09.686Z,1182
2022-10-18T08:20:12.206Z,1023
2022-10-18T08:21:09.691Z,1065
2022-10-18T08:22:09.682Z,1157
2022-10-18T08:23:09.661Z,1160
2022-10-18T08:24:09.662Z,1108
2022-10-18T08:25:09.660Z,1179
2022-10-18T08:26:09.671Z,1154
2022-10-18T08:27:09.681Z,1081
2022-10-18T08:28:09.721Z,1042
2022-10-18T08:29:23.005Z,1073
2022-10-18T08:30:09.653Z,1122
2022-10-18T08:31:09.653Z,1140
2022-10-18T08:32:09.735Z,1082
2022-10-18T08:33:09.656Z,1059
2022-10-18T08:34:09.655Z,1122
2022-10-18T08:35:09.690Z,1143
2022-10-18T08:36:09.678Z,1070
2022-10-18T08:37:09.669Z,1133
2022-10-18T08:38:09.656Z,1091
2022-10-18T08:39:09.648Z,1079
2022-10-18T08:40:09.656Z,1059
2022-10-18T08:41:09.640Z,1054
2022-10-18T08:42:09.658Z,1104
2022-10-18T08:43:09.651Z,1131
2022-10-18T08:44:09.646Z,1049
2022-10-18T08:45:17.970Z,1004
2022-10-18T08:46:09.640Z,1026
2022-10-18T08:47:09.651Z,1073
2022-10-18T08:48:09.638Z,1077
2022-10-18T08:49:09.634Z,1104
2022-10-18T08:50:09.647Z,1057
2022-10-18T08:51:09.658Z,1064
2022-10-18T08:52:09.636Z,1065
2022-10-18T08:53:09.642Z,1044
2022-10-18T08:54:09.632Z,1073
2022-10-18T08:55:09.634Z,1046
2022-10-18T08:56:09.628Z,1046
2022-10-18T08:57:09.639Z,1033
2022-10-18T08:58:09.680Z,1091
2022-10-18T08:59:09.619Z,1007
2022-10-18T09:00:09.624Z,1021
2022-10-18T09:01:09.625Z,1048
2022-10-18T09:02:09.620Z,1089
2022-10-18T09:03:09.660Z,1016
2022-10-18T09:04:09.615Z,1001
2022-10-18T09:05:09.627Z,1034
2022-10-18T09:06:09.612Z,1079
2022-10-18T09:07:09.679Z,1082
2022-10-18T09:08:09.619Z,1166
2022-10-18T09:09:09.611Z,1081
2022-10-18T09:10:09.723Z,1105
2022-10-18T09:11:09.610Z,1121
2022-10-18T09:12:09.628Z,1087
2022-10-18T09:13:09.630Z,1157
2022-10-18T09:14:09.608Z,1049
2022-10-18T09:15:09.613Z,1044
2022-10-18T09:16:09.611Z,1088
2022-10-18T09:17:14.986Z,1104
2022-10-18T09:18:09.644Z,1077
2022-10-18T09:19:09.602Z,1064
2022-10-18T09:20:09.614Z,1099
2022-10-18T09:21:09.604Z,1124
2022-10-18T09:22:09.768Z,1147
2022-10-18T09:23:09.633Z,1073
2022-10-18T09:24:09.596Z,1066
2022-10-18T09:25:09.599Z,1123
2022-10-18T09:26:09.610Z,1121
2022-10-18T09:27:09.611Z,1111
2022-10-18T09:28:09.589Z,1061
2022-10-18T09:29:09.732Z,987
2022-10-18T09:30:09.580Z,937
2022-10-18T09:31:09.599Z,926
2022-10-18T09:32:09.596Z,943
2022-10-18T09:33:09.580Z,908
2022-10-18T09:34:09.598Z,890
2022-10-18T09:35:09.584Z,881
2022-10-18T09:36:09.600Z,897
2022-10-18T09:37:09.583Z,893
2022-10-18T09:38:09.581Z,893
2022-10-18T09:39:09.632Z,899
2022-10-18T09:40:09.576Z,895
2022-10-18T09:41:10.760Z,891
2022-10-18T09:42:09.569Z,905
2022-10-18T09:43:09.573Z,910
2022-10-18T09:44:09.592Z,897
2022-10-18T09:45:09.567Z,872
2022-10-18T09:46:09.597Z,859
2022-10-18T09:47:12.294Z,900
2022-10-18T09:48:09.573Z,887
2022-10-18T09:49:12.915Z,872
2022-10-18T09:50:09.565Z,876
2022-10-18T09:51:09.565Z,877
2022-10-18T09:52:09.589Z,876
2022-10-18T09:53:09.562Z,875
2022-10-18T09:54:09.572Z,875
2022-10-18T09:55:09.579Z,873
2022-10-18T09:56:09.619Z,875
2022-10-18T09:57:09.554Z,878
2022-10-18T09:58:09.585Z,892
2022-10-18T09:59:09.555Z,923
2022-10-18T10:00:09.558Z,943
2022-10-18T10:01:09.560Z,920
2022-10-18T10:02:09.576Z,967
2022-10-18T10:03:09.558Z,979
2022-10-18T10:04:10.550Z,972
2022-10-18T10:06:09.552Z,941
2022-10-18T10:07:09.545Z,954
2022-10-18T10:08:09.570Z,962
2022-10-18T10:09:09.572Z,970
2022-10-18T10:10:09.554Z,977
2022-10-18T10:11:09.563Z,991
2022-10-18T10:12:09.560Z,991
2022-10-18T10:13:09.541Z,984
2022-10-18T10:14:09.584Z,1023
2022-10-18T10:15:09.544Z,1027
2022-10-18T10:16:09.533Z,1041
2022-10-18T10:17:09.530Z,1012
2022-10-18T10:18:09.566Z,1017
2022-10-18T10:19:09.548Z,990
2022-10-18T10:20:09.530Z,964
2022-10-18T10:21:09.531Z,989
2022-10-18T10:22:09.534Z,943
2022-10-18T10:23:09.592Z,988
2022-10-18T10:24:09.538Z,926
2022-10-18T10:25:09.525Z,955
2022-10-18T10:26:09.529Z,964
2022-10-18T10:27:09.547Z,957
2022-10-18T10:28:09.541Z,947
2022-10-18T10:29:17.599Z,962
2022-10-18T10:30:09.523Z,941
2022-10-18T10:31:09.514Z,919
2022-10-18T10:32:09.510Z,892
2022-10-18T10:33:09.538Z,892
2022-10-18T10:34:09.514Z,865
2022-10-18T10:35:13.622Z,875
2022-10-18T10:36:09.506Z,870
2022-10-18T10:37:09.505Z,862
2022-10-18T10:38:09.511Z,859
2022-10-18T10:39:09.502Z,891
2022-10-18T10:40:28.360Z,903
2022-10-18T10:41:09.503Z,915
2022-10-18T10:42:11.457Z,930
2022-10-18T10:43:18.137Z,879
2022-10-18T10:44:09.502Z,916
2022-10-18T10:45:09.504Z,924
2022-10-18T10:46:09.493Z,860
2022-10-18T10:47:09.514Z,903
2022-10-18T10:48:09.501Z,874
2022-10-18T10:49:38.612Z,853
2022-10-18T10:50:09.504Z,889
2022-10-18T10:51:09.495Z,914
2022-10-18T10:52:26.405Z,956
2022-10-18T10:53:09.495Z,978
2022-10-18T10:54:09.489Z,931
2022-10-18T10:55:30.761Z,905
2022-10-18T10:56:10.581Z,903
2022-10-18T10:57:09.504Z,887
2022-10-18T10:58:09.484Z,860
2022-10-18T10:59:09.590Z,856
2022-10-18T11:00:09.485Z,876
2022-10-18T11:01:11.295Z,860
2022-10-18T11:02:09.496Z,888
2022-10-18T11:03:27.305Z,888
2022-10-18T11:04:09.575Z,894
2022-10-18T11:05:09.481Z,891
2022-10-18T11:06:09.489Z,952
2022-10-18T11:07:09.490Z,926
2022-10-18T11:08:09.479Z,931
2022-10-18T11:09:09.469Z,899
2022-10-18T11:10:09.475Z,905
2022-10-18T11:11:09.471Z,859
2022-10-18T11:12:09.481Z,909
2022-10-18T11:13:09.475Z,870
2022-10-18T11:14:26.551Z,868
2022-10-18T11:15:09.493Z,874
2022-10-18T11:16:09.470Z,928
2022-10-18T11:17:09.527Z,941
2022-10-18T11:18:09.521Z,999
2022-10-18T11:19:09.462Z,948
2022-10-18T11:20:09.465Z,946
2022-10-18T11:21:09.462Z,974
2022-10-18T11:22:09.473Z,1001
2022-10-18T11:23:09.454Z,995
2022-10-18T11:24:09.471Z,1029
2022-10-18T11:25:09.462Z,998
2022-10-18T11:26:09.455Z,1051
2022-10-18T11:27:10.439Z,979
2022-10-18T11:28:09.470Z,990
2022-10-18T11:29:09.445Z,990
2022-10-18T11:30:09.454Z,1014
2022-10-18T11:31:09.474Z,993
2022-10-18T11:32:09.440Z,1031
2022-10-18T11:33:09.456Z,1036
2022-10-18T11:34:10.291Z,989
2022-10-18T11:35:09.445Z,1005
2022-10-18T11:36:09.438Z,996
2022-10-18T11:37:27.252Z,1026
2022-10-18T11:38:09.454Z,1027
2022-10-18T11:39:09.445Z,1022
2022-10-18T11:40:09.432Z,964
2022-10-18T11:41:09.448Z,1003
2022-10-18T11:42:09.450Z,1009
2022-10-18T11:43:09.434Z,1042
2022-10-18T11:44:09.455Z,1015
2022-10-18T11:45:09.424Z,1046
2022-10-18T11:46:09.423Z,996
2022-10-18T11:47:09.496Z,974
2022-10-18T11:48:09.426Z,1029
2022-10-18T11:49:09.433Z,1046
2022-10-18T11:50:09.426Z,1081
2022-10-18T11:51:09.438Z,1116
2022-10-18T11:52:09.650Z,1109
2022-10-18T11:53:09.424Z,1014
2022-10-18T11:54:09.418Z,1077
2022-10-18T11:55:09.437Z,1093
2022-10-18T11:56:09.440Z,1055
2022-10-18T11:57:09.424Z,1006
2022-10-18T11:58:09.414Z,1015
2022-10-18T11:59:09.416Z,938
2022-10-18T12:00:09.431Z,1029
2022-10-18T12:01:09.414Z,1060
2022-10-18T12:02:09.470Z,969
2022-10-18T12:03:09.548Z,959
2022-10-18T12:04:09.409Z,1037
2022-10-18T12:05:23.232Z,1070
2022-10-18T12:06:09.405Z,1060
2022-10-18T12:07:09.409Z,1050
2022-10-18T12:08:09.416Z,1050
2022-10-18T12:09:09.404Z,1080
2022-10-18T12:10:09.575Z,1063
2022-10-18T12:11:09.395Z,1108
2022-10-18T12:12:10.403Z,1112
2022-10-18T12:13:09.400Z,1128
2022-10-18T12:14:09.454Z,1160
2022-10-18T12:15:09.409Z,1107
2022-10-18T12:16:09.408Z,1144
2022-10-18T12:17:39.292Z,1162
2022-10-18T12:18:09.424Z,1175
2022-10-18T12:19:09.424Z,1191
2022-10-18T12:20:09.438Z,1168
2022-10-18T12:21:09.403Z,1159
2022-10-18T12:22:09.406Z,1191
2022-10-18T12:23:09.418Z,1202
2022-10-18T12:24:09.381Z,1186
2022-10-18T12:25:09.381Z,1223
2022-10-18T12:26:09.383Z,1233
2022-10-18T12:27:09.378Z,1263
2022-10-18T12:28:09.406Z,1265
2022-10-18T12:29:09.377Z,1269
2022-10-18T12:30:09.389Z,1306
2022-10-18T12:31:10.777Z,1341
2022-10-18T12:32:09.378Z,1348
2022-10-18T12:33:27.093Z,1321
2022-10-18T12:34:09.377Z,1342
2022-10-18T12:35:09.409Z,1342
2022-10-18T12:36:09.376Z,1317
2022-10-18T12:37:09.367Z,1373
2022-10-18T12:38:09.385Z,1316
2022-10-18T12:39:09.382Z,1348
2022-10-18T12:40:11.536Z,1326
2022-10-18T12:41:09.371Z,1354
2022-10-18T12:42:09.370Z,1373
2022-10-18T12:43:09.375Z,1405
2022-10-18T12:44:09.363Z,1355
2022-10-18T12:45:09.377Z,1422
2022-10-18T12:46:13.330Z,1377
2022-10-18T12:47:09.360Z,1392
2022-10-18T12:48:09.359Z,1378
2022-10-18T12:49:09.374Z,1352
2022-10-18T12:50:09.353Z,1387
2022-10-18T12:51:09.377Z,1393
2022-10-18T12:52:09.356Z,1435
2022-10-18T12:53:09.350Z,1476
2022-10-18T12:54:09.366Z,1552
2022-10-18T12:55:11.815Z,1459
2022-10-18T12:56:09.354Z,1414
2022-10-18T12:57:09.352Z,1441
2022-10-18T12:58:09.382Z,1424
2022-10-18T12:59:09.374Z,1454
2022-10-18T13:00:09.349Z,1434
2022-10-18T13:01:09.422Z,1412
2022-10-18T13:02:09.355Z,1442
2022-10-18T13:03:09.334Z,1619
2022-10-18T13:04:09.347Z,1468
2022-10-18T13:05:16.576Z,1478
2022-10-18T13:06:09.355Z,1632
2022-10-18T13:07:09.357Z,1460
2022-10-18T13:08:09.350Z,1630
2022-10-18T13:09:09.338Z,1497
2022-10-18T13:10:09.334Z,1484
2022-10-18T13:11:09.342Z,1466
2022-10-18T13:12:09.350Z,1445
2022-10-18T13:13:29.710Z,1482
2022-10-18T13:14:09.337Z,1462
2022-10-18T13:15:25.005Z,1465
2022-10-18T13:16:09.328Z,1449
2022-10-18T13:17:09.348Z,1473
2022-10-18T13:18:09.366Z,1587
2022-10-18T13:19:09.325Z,1475
2022-10-18T13:20:24.965Z,1483
2022-10-18T13:21:09.320Z,1458
2022-10-18T13:22:09.324Z,1492
2022-10-18T13:23:09.443Z,1590
2022-10-18T13:24:09.315Z,1555
2022-10-18T13:25:09.321Z,1458
2022-10-18T13:26:09.318Z,1583
2022-10-18T13:27:24.507Z,1537
2022-10-18T13:28:09.331Z,1488
2022-10-18T13:29:09.399Z,1484
2022-10-18T13:30:09.304Z,1506
2022-10-18T13:31:09.304Z,1506
2022-10-18T13:32:09.356Z,1481
2022-10-18T13:33:09.318Z,1522
2022-10-18T13:34:09.303Z,1519
2022-10-18T13:35:09.300Z,1599
2022-10-18T13:36:09.313Z,1554
2022-10-18T13:37:09.301Z,1562
2022-10-18T13:38:09.329Z,1594
2022-10-18T13:39:09.327Z,1516
2022-10-18T13:40:09.297Z,1499